METAR Data
IDs: Format: Raw Decoded Include TAF

Data at: 1615 UTC 24 Aug 2019

PATQ 241556Z AUTO 29013KT 8SM OVC005 07/06 A2968 RMK AO2 CIG 004V007 SLP058 T00670061 TSNO
PATQ 241456Z AUTO 29014KT 9SM OVC005 07/07 A2968 RMK AO2 RAB01E34 CIG 002V008 SLP058 P0000 60000 T00670067 56004 TSNO
PATQ 241426Z AUTO 29014KT 3SM -RA BR OVC003 07/07 A2968 RMK AO2 RAB01 P0000 TSNO
PATQ 241412Z AUTO 29016KT 1 1/4SM -RA BR OVC003 07/07 A2968 RMK AO2 RAB01 P0000 TSNO
PATQ 241356Z AUTO 28015KT 3/4SM BR OVC003 07/07 A2968 RMK AO2 SLP059 T00670067 TSNO
PATQ 241354Z AUTO 28018KT 3/4SM BR OVC003 07/07 A2968 RMK AO2 TSNO
PATQ 241345Z AUTO 28015KT 1 3/4SM BR OVC003 07/07 A2968 RMK AO2 TSNO
PATQ 241215Z AUTO 28015KT 6SM BR OVC003 07/07 A2969 RMK AO2 TSNO
PATQ 241109Z AUTO 28017KT 10SM -RA OVC005 07/07 A2970 RMK AO2 RAB04 P0000 TSNO
PATQ 241056Z AUTO 28015KT 10SM OVC003 07/07 A2970 RMK AO2 RAE48 SLP064 P0000 T00720067 TSNO
PATQ 241029Z AUTO 27016KT 2 1/2SM -RA BR OVC003 07/07 A2970 RMK AO2 P0000 TSNO
PATQ 241018Z AUTO 27018KT 3SM -RA BR OVC003 07/07 A2970 RMK AO2 P0000 TSNO
PATQ 240856Z AUTO 26016KT 4SM -RA BR OVC003 07/07 A2971 RMK AO2 SLP066 P0001 60003 T00670067 400670028 56005 TSNO
PATQ 240853Z AUTO 26015KT 3SM -RA BR OVC003 07/07 A2971 RMK AO2 P0001 400670028 TSNO
PATQ 240756Z AUTO 25015KT 3SM -RA BR OVC007 07/06 A2971 RMK AO2 SLP068 P0001 T00670061 TSNO
PATQ 240656Z AUTO 26013KT 5SM -RA BR OVC007 06/06 A2972 RMK AO2 SLP071 P0001 T00610056 TSNO
PATQ 240620Z AUTO 26014KT 7SM -RA OVC009 06/06 A2973 RMK AO2 CIG 008V011 P0001 TSNO
PATQ 240456Z AUTO 27012KT 10SM -RA OVC013 06/04 A2975 RMK AO2 RAB19 SLP080 P0000 T00610044 TSNO
PATQ 240431Z AUTO 27015KT 10SM -RA OVC013 06/04 A2975 RMK AO2 RAB19 P0000 TSNO
PATQ 240356Z AUTO 27014KT 10SM OVC015 06/03 A2975 RMK AO2 SLP083 T00560033 TSNO
PATQ 240323Z AUTO 28016KT 10SM BKN019 OVC037 06/03 A2976 RMK AO2 TSNO
PATQ 240256Z AUTO 28014KT 10SM FEW019 BKN033 OVC043 06/02 A2976 RMK AO2 SLP085 T00560022 58006 TSNO
PATQ 240240Z AUTO 28018KT 10SM SCT021 OVC033 06/02 A2976 RMK AO2 TSNO
PATQ 240132Z AUTO 29015KT 10SM SCT023 OVC043 06/02 A2977 RMK AO2 TSNO
PATQ 240056Z AUTO 30013KT 10SM BKN023 OVC055 05/01 A2978 RMK AO2 SLP090 T00500011 TSNO
PATQ 232056Z AUTO 34015KT 10SM OVC015 04/01 A2976 RMK AO2 SLP086 60000 T00390011 51008 TSNO
PATQ 232053Z AUTO 33015KT 10SM OVC015 04/01 A2976 RMK AO2 TSNO
PATQ 232044Z AUTO 33015KT 7SM OVC013 04/01 A2976 RMK AO2 TSNO
PATQ 231956Z AUTO 33016KT 10SM OVC014 03/02 A2975 RMK AO2 RAB16E52 SLP082 P0000 T00330017 TSNO
PATQ 231842Z AUTO 33015KT 4SM BR SCT009 OVC015 03/02 A2973 RMK AO2 RAB1757E12UPB1758E00 P0000 TSNO
PATQ 231830Z AUTO 33017G20KT 7SM OVC015 03/02 A2973 RMK AO2 RAB1757E12UPB1758E00 P0000 TSNO
PATQ 231747Z AUTO 33017KT 9SM SCT008 OVC014 03/02 A2972 RMK AO2 RAE39UPB10E19 P0000 TSNO
PATQ 231714Z AUTO 32015KT 4SM UP BR BKN008 OVC015 03/02 A2971 RMK AO2 RAE05UPB10 CIG 006V011 P0000 TSNO
PATQ 231656Z AUTO 32016KT 5SM -RA BR SCT008 OVC015 03/02 A2971 RMK AO2 UPE1558B41E50RAB1558E12B50 SLP066 P0000 T00280022 TSNO
PATQ 231636Z AUTO 32014KT 7SM SCT012 OVC017 03/02 A2970 RMK AO2 UPE1558RAB1558E12 P0000 TSNO
PATQ 231612Z AUTO 33016KT 9SM OVC014 03/02 A2970 RMK AO2 UPE1558RAB1558E12 P0000 TSNO
PATQ 231556Z AUTO 33014KT 3SM UP BR OVC015 03/02 A2970 RMK AO2 RAB02E21UPB03E12B51 SLP063 P0000 T00280017 TSNO
PATQ 231513Z AUTO 33014KT 3SM -RA BR BKN014 OVC019 03/02 A2968 RMK AO2 RAB02UPB03E12 P0000 TSNO
PATQ 231232Z AUTO 33019KT 7SM -RA SCT010 BKN018 OVC023 03/02 A2964 RMK AO2 RAB18 P0000 TSNO
PATQ 231221Z AUTO 33018KT 5SM -RA BR BKN010 OVC015 03/02 A2963 RMK AO2 RAB18 P0000 TSNO
PATQ 231151Z AUTO 33012KT 10SM FEW010 BKN017 OVC035 03/02 A2963 RMK AO2 RAB28E40 P0000 TSNO
PATQ 231142Z AUTO 33013KT 10SM FEW010 SCT019 OVC033 03/02 A2963 RMK AO2 RAB28E40 P0000 TSNO
PATQ 231056Z AUTO 32015KT 10SM FEW010 BKN021 OVC032 03/03 A2962 RMK AO2 RAB05E15 SLP036 P0000 T00330028 TSNO
PATQ 231052Z AUTO 33014KT 10SM FEW010 BKN023 OVC032 03/03 A2962 RMK AO2 RAB05E15 P0000 TSNO
PATQ 231023Z AUTO 33018KT 10SM FEW008 BKN014 OVC029 04/03 A2961 RMK AO2 RAB05E15 P0000 TSNO
PATQ 231015Z AUTO 32013KT 10SM SCT010 BKN017 OVC029 04/03 A2961 RMK AO2 RAB05E15 P0000 TSNO
PATQ 230956Z AUTO 33015KT 10SM BKN014 OVC020 04/03 A2961 RMK AO2 RAE38 SLP032 P0001 T00390028 TSNO
PATQ 230944Z AUTO 33015KT 7SM BKN010 BKN014 OVC020 04/03 A2961 RMK AO2 RAE38 CIG 007V011 P0001 TSNO
PATQ 230934Z AUTO 33017KT 7SM -RA FEW007 BKN016 OVC040 04/03 A2960 RMK AO2 P0001 TSNO
PATQ 230923Z AUTO 34014KT 6SM BR BKN009 BKN016 OVC029 04/03 A2960 RMK AO2 RAE10 CIG 006V012 P0000 TSNO
PATQ 230856Z AUTO 33017G22KT 6SM -RA BR BKN007 OVC018 04/04 A2959 RMK AO2 RAB11 CIG 004V011 SLP028 P0000 60000 T00440039 400670044 55003 TSNO
PATQ 230831Z AUTO 33017KT 3SM -RA BR BKN007 OVC011 04/04 A2959 RMK AO2 RAB11 CIG 004V009 P0000 TSNO
PATQ 230756Z AUTO 31016KT 10SM BKN005 BKN018 OVC026 05/04 A2958 RMK AO2 RAE46 SLP024 P0000 T00500044 TSNO
PATQ 230734Z AUTO 31016KT 2 1/2SM -RA BR BKN005 BKN010 OVC018 06/05 A2958 RMK AO2 VIS 1 1/4V5 CIG 003V008 P0000 TSNO
PATQ 230713Z AUTO 31014KT 3SM -RA BR BKN005 OVC018 06/06 A2958 RMK AO2 CIG 003V009 P0000 TSNO
PATQ 230648Z AUTO 26015KT 1 3/4SM -RA BR OVC003 06/05 A2959 RMK AO2 P0000 TSNO
PATQ 230622Z AUTO 25015KT 1 1/2SM -RA BR OVC005 05/04 A2959 RMK AO2 P0000 TSNO
PATQ 230600Z AUTO 24016G21KT 2 1/2SM -RA BR BKN005 OVC008 05/04 A2960 RMK AO2 VIS 2V4 CIG 004V008 P0000 TSNO
PATQ 230556Z AUTO 24016KT 1 3/4SM -RA BR OVC008 05/04 A2960 RMK AO2 RAE08B49 CIG 005V011 SLP030 P0000 60001 T00500044 10067 20050 58023 TSNO
PATQ 230552Z AUTO 24017KT 1 3/4SM -RA BR OVC008 05/04 A2960 RMK AO2 RAE08B49 CIG 005V009 P0000 TSNO
PATQ 230535Z AUTO 24014G22KT 8SM BKN008 BKN019 OVC045 05/04 A2961 RMK AO2 RAE08 CIG 007V012 P0000 TSNO
PATQ 230501Z AUTO 25015KT 7SM -RA SCT008 BKN031 OVC041 05/04 A2962 RMK AO2 P0000 TSNO
PATQ 230456Z AUTO 26017KT 4SM -RA BR SCT010 BKN018 OVC039 05/04 A2963 RMK AO2 RAE32B52 SLP039 P0000 T00500039 TSNO